Osceola, Arkansas
Current Conditions -  °F | °C
As of 2:53 PM on Friday 31 Oct 2014 (Local Time) from KHKA Reporting Station
Broken Clouds Broken Clouds  
Wind Chill: 57°   Ceiling: 6000
Heat Index: 57°   Visibility: 10mi
Dew Point: 36°   Wind: 31mph
Humidity: 45%   Direction: 350°N
Pressure: 30.17"   Gusts: 36mph
Location:  35.71°N, 89.97°W
Report Text: KHKA 311953Z AUTO 35027G31KT 10SM BKN060 14/02 A3017 RMK AO2 PK WND 36031/1948 SLP215 T01390022
Loading
Personal Weather Stations






























Interactive Weather Map
Tropical Storm Tracking
New forecast layout! Learn more

10-Day Weather Forecast

Advertisements
Track Severe Weather on mobile